createdAt,value
2022-08-03T00:00:26.384Z,7.70
2022-08-03T00:02:53.568Z,7.70
2022-08-03T00:05:20.559Z,7.00
2022-08-03T00:07:48.607Z,7.80
2022-08-03T00:10:16.775Z,6.80
2022-08-03T00:12:43.557Z,7.70
2022-08-03T00:15:11.523Z,7.80
2022-08-03T00:17:52.860Z,7.60
2022-08-03T00:20:23.171Z,7.40
2022-08-03T00:22:50.144Z,7.60
2022-08-03T00:25:17.010Z,8.10
2022-08-03T00:27:43.715Z,7.90
2022-08-03T00:30:10.765Z,8.30
2022-08-03T00:32:40.046Z,7.50
2022-08-03T00:35:20.448Z,8.00
2022-08-03T00:37:58.783Z,7.60
2022-08-03T00:40:25.673Z,7.20
2022-08-03T00:42:56.942Z,8.50
2022-08-03T00:45:25.374Z,8.70
2022-08-03T00:47:52.326Z,7.70
2022-08-03T00:50:19.637Z,8.10
2022-08-03T00:52:46.593Z,7.50
2022-08-03T00:55:13.343Z,7.70
2022-08-03T00:57:40.106Z,7.70
2022-08-03T01:00:07.702Z,7.60
2022-08-03T01:02:34.422Z,7.40
2022-08-03T01:05:01.186Z,7.60
2022-08-03T01:07:33.035Z,8.00
2022-08-03T01:10:31.574Z,6.30
2022-08-03T01:14:01.675Z,6.80
2022-08-03T01:16:09.187Z,7.30
2022-08-03T01:18:59.803Z,6.40
2022-08-03T01:22:09.267Z,7.30
2022-08-03T01:24:48.153Z,7.50
2022-08-03T01:27:31.754Z,7.50
2022-08-03T01:30:08.734Z,7.70
2022-08-03T01:36:16.331Z,6.70
2022-08-03T01:38:55.752Z,7.30
2022-08-03T01:41:26.914Z,7.60
2022-08-03T01:44:26.443Z,7.80
2022-08-03T01:46:40.677Z,8.20
2022-08-03T01:49:15.732Z,7.00
2022-08-03T01:51:58.662Z,7.50
2022-08-03T01:54:29.498Z,7.40
2022-08-03T01:56:57.107Z,7.20
2022-08-03T01:59:23.848Z,7.00
2022-08-03T02:02:28.975Z,7.80
2022-08-03T02:04:37.388Z,7.50
2022-08-03T02:07:04.222Z,7.60
2022-08-03T02:09:31.120Z,7.60
2022-08-03T02:11:57.884Z,6.40
2022-08-03T02:14:24.624Z,7.80
2022-08-03T02:16:51.477Z,7.40
2022-08-03T02:19:18.324Z,7.80
2022-08-03T02:21:56.374Z,7.10
2022-08-03T02:24:28.705Z,8.00
2022-08-03T02:26:55.818Z,8.20
2022-08-03T02:29:40.128Z,9.30
2022-08-03T02:32:13.512Z,7.20
2022-08-03T02:34:41.334Z,7.60
2022-08-03T02:37:08.138Z,8.00
2022-08-03T02:39:35.029Z,8.50
2022-08-03T02:42:05.587Z,7.80
2022-08-03T02:44:33.231Z,7.70
2022-08-03T02:47:05.206Z,8.70
2022-08-03T02:49:42.709Z,8.50
2022-08-03T02:52:18.506Z,8.50
2022-08-03T02:54:45.484Z,8.10
2022-08-03T02:57:12.223Z,8.60
2022-08-03T02:59:38.957Z,7.70
2022-08-03T03:02:05.784Z,7.90
2022-08-03T03:04:33.008Z,8.60
2022-08-03T03:07:01.812Z,7.40
2022-08-03T03:09:40.280Z,8.30
2022-08-03T03:14:35.009Z,7.50
2022-08-03T03:17:01.957Z,7.90
2022-08-03T03:19:29.090Z,7.60
2022-08-03T03:21:55.837Z,8.10
2022-08-03T03:24:22.588Z,8.00
2022-08-03T03:26:49.393Z,7.80
2022-08-03T03:29:16.304Z,7.50
2022-08-03T03:31:43.034Z,7.50
2022-08-03T03:34:09.824Z,7.30
2022-08-03T03:36:37.543Z,7.70
2022-08-03T03:39:15.866Z,7.90
2022-08-03T03:41:43.054Z,7.40
2022-08-03T03:44:09.801Z,8.60
2022-08-03T03:46:37.016Z,8.20
2022-08-03T03:49:05.697Z,7.60
2022-08-03T03:51:32.681Z,8.40
2022-08-03T03:54:00.363Z,8.90
2022-08-03T03:56:27.245Z,8.00
2022-08-03T03:58:54.008Z,8.90
2022-08-03T04:01:20.808Z,8.30
2022-08-03T04:03:47.651Z,8.00
2022-08-03T04:06:32.973Z,7.70
2022-08-03T04:09:20.813Z,7.80
2022-08-03T04:11:52.472Z,8.20
2022-08-03T04:14:20.366Z,7.90
2022-08-03T04:17:07.308Z,7.60
2022-08-03T04:19:40.611Z,7.50
2022-08-03T04:22:10.219Z,7.20
2022-08-03T04:24:46.996Z,7.50
2022-08-03T04:27:15.368Z,7.10
2022-08-03T04:29:48.270Z,8.00
2022-08-03T04:32:16.120Z,7.40
2022-08-03T04:34:43.035Z,6.80
2022-08-03T04:37:15.183Z,7.40
2022-08-03T04:39:42.328Z,6.70
2022-08-03T04:42:09.357Z,6.80
2022-08-03T04:44:37.917Z,6.70
2022-08-03T04:47:04.718Z,6.90
2022-08-03T04:49:31.610Z,6.60
2022-08-03T04:51:58.428Z,6.70
2022-08-03T04:54:25.134Z,6.10
2022-08-03T04:56:51.847Z,6.00
2022-08-03T04:59:18.586Z,6.10
2022-08-03T05:01:45.459Z,6.80
2022-08-03T05:04:12.299Z,5.70
2022-08-03T05:06:41.413Z,6.30
2022-08-03T05:09:15.033Z,6.00
2022-08-03T05:12:01.743Z,5.90
2022-08-03T05:14:28.530Z,6.30
2022-08-03T05:16:55.251Z,6.40
2022-08-03T05:19:21.980Z,6.40
2022-08-03T05:21:52.854Z,6.50
2022-08-03T05:24:19.870Z,7.90
2022-08-03T05:26:46.632Z,7.50
2022-08-03T05:29:13.390Z,7.30
2022-08-03T05:31:40.687Z,7.40
2022-08-03T05:34:08.055Z,7.60
2022-08-03T05:36:34.783Z,7.00
2022-08-03T05:39:02.923Z,7.30
2022-08-03T05:41:37.265Z,7.60
2022-08-03T05:44:04.704Z,7.20
2022-08-03T05:46:31.434Z,6.50
2022-08-03T05:48:58.243Z,7.20
2022-08-03T05:51:25.021Z,7.70
2022-08-03T05:53:52.286Z,7.10
2022-08-03T05:56:22.420Z,7.10
2022-08-03T05:58:49.163Z,7.00
2022-08-03T06:01:16.756Z,7.00
2022-08-03T06:03:44.103Z,8.20
2022-08-03T06:06:11.686Z,7.30
2022-08-03T06:08:38.765Z,7.00
2022-08-03T06:11:05.628Z,7.50
2022-08-03T06:13:32.480Z,7.70
2022-08-03T06:15:59.227Z,6.90
2022-08-03T06:18:26.080Z,7.20
2022-08-03T06:20:53.190Z,7.30
2022-08-03T06:23:20.048Z,7.40
2022-08-03T06:25:47.075Z,7.60
2022-08-03T06:28:51.803Z,7.70
2022-08-03T06:31:06.594Z,7.90
2022-08-03T06:33:48.403Z,7.50
2022-08-03T06:36:20.505Z,7.20
2022-08-03T06:38:47.253Z,7.90
2022-08-03T06:41:14.020Z,7.60
2022-08-03T06:44:03.758Z,7.50
2022-08-03T06:46:27.526Z,7.60
2022-08-03T06:48:55.882Z,8.00
2022-08-03T06:52:04.476Z,8.60
2022-08-03T06:54:10.958Z,7.80
2022-08-03T06:56:37.804Z,9.60
2022-08-03T06:59:04.552Z,8.60
2022-08-03T07:01:31.414Z,8.50
2022-08-03T07:03:58.206Z,7.70
2022-08-03T07:06:24.949Z,7.50
2022-08-03T07:08:54.514Z,6.70
2022-08-03T07:11:23.297Z,7.30
2022-08-03T07:13:50.105Z,7.20
2022-08-03T07:16:17.032Z,6.80
2022-08-03T07:18:44.539Z,7.00
2022-08-03T07:21:12.870Z,7.70
2022-08-03T07:23:39.666Z,6.90
2022-08-03T07:26:06.431Z,7.40
2022-08-03T07:28:33.234Z,7.50
2022-08-03T07:31:00.090Z,7.30
2022-08-03T07:33:26.814Z,6.70
2022-08-03T07:35:53.567Z,7.60
2022-08-03T07:38:21.166Z,7.70
2022-08-03T07:40:48.203Z,7.60
2022-08-03T07:43:14.959Z,7.70
2022-08-03T07:45:41.828Z,7.50
2022-08-03T07:48:12.200Z,7.20
2022-08-03T07:50:39.431Z,8.00
2022-08-03T07:53:06.252Z,7.10
2022-08-03T07:55:33.095Z,8.20
2022-08-03T07:58:04.054Z,8.10
2022-08-03T08:00:30.984Z,8.20
2022-08-03T08:02:57.884Z,7.10
2022-08-03T08:05:24.675Z,8.30
2022-08-03T08:07:51.866Z,7.30
2022-08-03T08:10:18.822Z,7.60
2022-08-03T08:12:45.656Z,7.50
2022-08-03T08:15:12.404Z,7.50
2022-08-03T08:17:49.474Z,8.00
2022-08-03T08:20:23.866Z,6.60
2022-08-03T08:23:00.281Z,7.40
2022-08-03T08:25:29.120Z,7.20
2022-08-03T08:28:29.926Z,7.60
2022-08-03T08:30:42.890Z,7.40
2022-08-03T08:33:22.155Z,7.30
2022-08-03T08:35:51.596Z,7.90
2022-08-03T08:38:18.407Z,7.60
2022-08-03T08:40:45.330Z,7.10
2022-08-03T08:43:12.096Z,7.70
2022-08-03T08:45:38.839Z,7.70
2022-08-03T08:48:08.370Z,7.60
2022-08-03T08:50:35.294Z,7.90
2022-08-03T08:53:03.165Z,8.20
2022-08-03T08:55:30.167Z,7.90
2022-08-03T08:58:20.772Z,7.50
2022-08-03T09:00:48.579Z,7.10
2022-08-03T09:03:29.398Z,8.20
2022-08-03T09:05:59.604Z,7.80
2022-08-03T09:08:26.384Z,7.70
2022-08-03T09:10:53.112Z,8.10
2022-08-03T09:13:19.849Z,7.80
2022-08-03T09:16:00.707Z,8.20
2022-08-03T09:18:32.834Z,8.30
2022-08-03T09:21:30.715Z,7.70
2022-08-03T09:24:04.262Z,7.20
2022-08-03T09:26:36.259Z,7.70
2022-08-03T09:29:13.118Z,8.00
2022-08-03T09:31:45.003Z,7.30
2022-08-03T09:34:13.776Z,7.30
2022-08-03T09:36:50.645Z,7.30
2022-08-03T09:39:37.551Z,7.70
2022-08-03T09:42:19.002Z,8.30
2022-08-03T09:44:51.537Z,7.20
2022-08-03T09:47:29.618Z,7.20
2022-08-03T09:50:09.312Z,7.30
2022-08-03T09:52:51.798Z,7.00
2022-08-03T09:55:23.569Z,8.20
2022-08-03T09:58:11.345Z,7.40
2022-08-03T10:01:05.845Z,7.10
2022-08-03T10:04:03.081Z,8.20
2022-08-03T10:06:25.489Z,7.40
2022-08-03T10:09:10.071Z,7.90
2022-08-03T10:11:41.689Z,8.20
2022-08-03T10:14:11.565Z,7.70
2022-08-03T10:16:39.246Z,8.40
2022-08-03T10:19:07.358Z,8.20
2022-08-03T10:21:35.254Z,8.80
2022-08-03T10:24:07.111Z,8.00
2022-08-03T10:26:34.980Z,8.20
2022-08-03T10:29:04.043Z,8.20
2022-08-03T10:31:34.964Z,8.80
2022-08-03T10:34:02.115Z,8.30
2022-08-03T10:36:30.791Z,8.40
2022-08-03T10:38:59.364Z,9.10
2022-08-03T10:41:27.019Z,8.00
2022-08-03T10:43:59.206Z,8.30
2022-08-03T10:46:26.016Z,7.60
2022-08-03T10:48:53.888Z,8.20
2022-08-03T10:51:20.673Z,7.80
2022-08-03T10:53:55.074Z,7.70
2022-08-03T10:56:53.462Z,7.60
2022-08-03T10:59:46.381Z,7.90
2022-08-03T11:02:14.340Z,7.70
2022-08-03T11:04:41.227Z,8.80
2022-08-03T11:07:24.247Z,7.90
2022-08-03T11:09:51.078Z,8.10
2022-08-03T11:12:31.198Z,8.30
2022-08-03T11:15:06.401Z,7.40
2022-08-03T11:17:46.321Z,6.80
2022-08-03T11:20:44.185Z,6.90
2022-08-03T11:23:10.954Z,7.20
2022-08-03T11:26:15.878Z,7.10
2022-08-03T11:28:44.634Z,6.90
2022-08-03T11:34:12.075Z,6.40
2022-08-03T11:37:16.742Z,7.20
2022-08-03T11:39:45.935Z,6.80
2022-08-03T11:42:25.561Z,7.10
2022-08-03T11:44:59.163Z,6.90
2022-08-03T11:47:27.351Z,7.50
2022-08-03T11:49:55.891Z,7.40
2022-08-03T11:52:26.910Z,6.90
2022-08-03T11:54:56.655Z,6.60
2022-08-03T11:59:02.642Z,6.40
2022-08-03T12:00:29.573Z,5.90
2022-08-03T12:03:02.927Z,7.60
2022-08-03T12:06:03.135Z,6.90
2022-08-03T12:08:32.923Z,6.30
2022-08-03T12:11:01.367Z,7.10
2022-08-03T12:14:44.262Z,6.50
2022-08-03T12:16:19.936Z,7.10
2022-08-03T12:18:58.435Z,6.30
2022-08-03T12:21:25.301Z,6.20
2022-08-03T12:23:56.847Z,6.70
2022-08-03T12:26:23.580Z,6.20
2022-08-03T12:28:50.408Z,7.30
2022-08-03T12:31:17.217Z,5.40
2022-08-03T12:34:06.477Z,5.30
2022-08-03T12:36:34.340Z,5.70
2022-08-03T12:39:08.340Z,6.10
2022-08-03T12:41:36.568Z,6.20
2022-08-03T12:44:04.399Z,6.60
2022-08-03T12:46:33.272Z,7.10
2022-08-03T12:49:15.480Z,7.20
2022-08-03T12:51:42.385Z,8.00
2022-08-03T12:54:09.906Z,8.20
2022-08-03T12:56:36.699Z,7.30
2022-08-03T12:59:32.159Z,7.70
2022-08-03T13:02:01.695Z,7.30
2022-08-03T13:04:33.628Z,7.10
2022-08-03T13:07:14.146Z,7.70
2022-08-03T13:09:48.546Z,7.20
2022-08-03T13:12:16.786Z,7.20
2022-08-03T13:14:44.567Z,6.70
2022-08-03T13:17:11.676Z,6.60
2022-08-03T13:19:38.976Z,7.30
2022-08-03T13:22:19.343Z,6.70
2022-08-03T13:24:47.603Z,6.50
2022-08-03T13:28:02.117Z,5.50
2022-08-03T13:30:01.362Z,6.10
2022-08-03T13:32:28.194Z,5.70
2022-08-03T13:34:54.973Z,4.90
2022-08-03T13:37:22.072Z,5.70
2022-08-03T13:39:59.263Z,4.60
2022-08-03T13:42:34.541Z,4.70
2022-08-03T13:45:01.621Z,4.70
2022-08-03T13:47:28.537Z,6.00
2022-08-03T13:50:01.566Z,4.60
2022-08-03T13:53:31.967Z,4.00
2022-08-03T13:55:58.732Z,4.80
2022-08-03T13:58:25.556Z,3.80
2022-08-03T14:00:52.316Z,3.80
2022-08-03T14:03:19.054Z,3.70
2022-08-03T14:05:45.919Z,4.70
2022-08-03T14:08:12.859Z,5.20
2022-08-03T14:10:41.579Z,5.90
2022-08-03T14:13:09.004Z,4.70
2022-08-03T14:15:37.867Z,5.50
2022-08-03T14:18:06.695Z,5.00
2022-08-03T14:20:38.960Z,5.30
2022-08-03T14:23:15.592Z,5.40
2022-08-03T14:25:44.335Z,5.90
2022-08-03T14:28:22.911Z,6.50
2022-08-03T14:30:53.891Z,5.70
2022-08-03T14:33:20.692Z,6.40
2022-08-03T14:35:47.788Z,6.00
2022-08-03T14:38:14.712Z,5.80
2022-08-03T14:40:41.590Z,5.30
2022-08-03T14:43:08.322Z,5.70
2022-08-03T14:45:35.072Z,5.70
2022-08-03T14:50:33.785Z,5.30
2022-08-03T14:50:51.703Z,5.40
2022-08-03T14:53:19.358Z,5.70
2022-08-03T14:55:49.814Z,5.30
2022-08-03T14:58:21.970Z,5.80
2022-08-03T15:00:50.033Z,5.70
2022-08-03T15:03:20.259Z,6.70
2022-08-03T15:05:47.390Z,5.70
2022-08-03T15:08:14.169Z,5.00
2022-08-03T15:10:44.086Z,6.30
2022-08-03T15:13:12.276Z,5.50
2022-08-03T15:15:39.107Z,6.00
2022-08-03T15:18:05.960Z,5.20
2022-08-03T15:20:43.827Z,5.70
2022-08-03T15:23:12.016Z,4.80
2022-08-03T15:26:28.360Z,6.10
2022-08-03T15:28:25.574Z,5.50
2022-08-03T15:30:52.663Z,5.50
2022-08-03T15:33:19.501Z,5.30
2022-08-03T15:35:47.457Z,5.80
2022-08-03T15:38:14.366Z,5.30
2022-08-03T15:40:41.176Z,6.00
2022-08-03T15:43:08.070Z,6.30
2022-08-03T15:45:36.230Z,6.80
2022-08-03T15:48:05.730Z,6.40
2022-08-03T15:50:32.551Z,6.40
2022-08-03T15:52:59.345Z,6.80
2022-08-03T15:55:26.143Z,7.20
2022-08-03T15:59:11.279Z,6.50
2022-08-03T16:00:40.188Z,6.20
2022-08-03T16:03:06.927Z,6.60
2022-08-03T16:05:33.774Z,6.50
2022-08-03T16:08:04.210Z,6.30
2022-08-03T16:10:31.951Z,6.90
2022-08-03T16:13:00.130Z,6.50
2022-08-03T16:15:27.251Z,6.70
2022-08-03T16:17:54.104Z,6.30
2022-08-03T16:20:31.656Z,7.20
2022-08-03T16:23:10.809Z,7.00
2022-08-03T16:25:42.345Z,6.90
2022-08-03T16:28:13.808Z,6.80
2022-08-03T16:30:44.967Z,6.80
2022-08-03T16:33:16.974Z,6.20
2022-08-03T16:35:45.976Z,6.20
2022-08-03T16:38:18.613Z,6.70
2022-08-03T16:40:47.423Z,6.80
2022-08-03T16:43:18.694Z,6.70
2022-08-03T16:45:46.541Z,7.20
2022-08-03T16:48:13.799Z,6.90
2022-08-03T16:50:40.590Z,6.30
2022-08-03T16:53:09.327Z,6.80
2022-08-03T16:55:48.836Z,6.60
2022-08-03T16:58:24.464Z,7.20
2022-08-03T17:01:21.088Z,7.00
2022-08-03T17:04:02.046Z,7.20
2022-08-03T17:06:34.474Z,7.00
2022-08-03T17:09:03.555Z,7.10
2022-08-03T17:11:35.256Z,7.00
2022-08-03T17:14:07.714Z,7.90
2022-08-03T17:16:38.342Z,7.60
2022-08-03T17:19:06.492Z,7.40
2022-08-03T17:21:39.311Z,7.40
2022-08-03T17:24:14.598Z,6.90
2022-08-03T17:26:49.929Z,6.80
2022-08-03T17:29:18.253Z,7.00
2022-08-03T17:31:49.543Z,6.90
2022-08-03T17:34:17.133Z,7.20
2022-08-03T17:39:55.512Z,7.70
2022-08-03T17:42:30.068Z,8.00
2022-08-03T17:44:58.507Z,7.70
2022-08-03T17:47:41.886Z,7.80
2022-08-03T17:50:24.191Z,7.70
2022-08-03T17:53:23.657Z,7.30
2022-08-03T17:55:59.694Z,8.00
2022-08-03T17:58:59.144Z,9.20
2022-08-03T18:02:00.399Z,9.00
2022-08-03T18:04:33.774Z,8.10
2022-08-03T18:07:11.584Z,7.10
2022-08-03T18:10:03.864Z,7.80
2022-08-03T18:12:28.959Z,7.10
2022-08-03T18:15:01.037Z,6.50
2022-08-03T18:17:55.964Z,6.90
2022-08-03T18:20:32.138Z,6.70
2022-08-03T18:23:05.624Z,6.80
2022-08-03T18:25:43.062Z,6.80
2022-08-03T18:28:16.435Z,6.90
2022-08-03T18:30:53.596Z,7.30
2022-08-03T18:34:19.530Z,6.50
2022-08-03T18:36:17.762Z,7.10
2022-08-03T18:39:01.651Z,7.10
2022-08-03T18:41:32.257Z,6.70
2022-08-03T18:44:52.570Z,7.30
2022-08-03T18:47:25.284Z,7.40
2022-08-03T18:50:01.663Z,6.50
2022-08-03T18:52:44.044Z,6.50
2022-08-03T18:55:33.086Z,7.00
2022-08-03T18:58:02.363Z,6.10
2022-08-03T19:00:42.613Z,6.60
2022-08-03T19:03:23.417Z,7.00
2022-08-03T19:06:02.798Z,6.10
2022-08-03T19:08:42.425Z,7.40
2022-08-03T19:11:10.937Z,6.90
2022-08-03T19:13:50.322Z,8.00
2022-08-03T19:16:22.409Z,6.30
2022-08-03T19:18:52.842Z,5.90
2022-08-03T19:21:19.683Z,6.30
2022-08-03T19:23:49.315Z,7.10
2022-08-03T19:26:30.335Z,7.00
2022-08-03T19:28:58.383Z,7.30
2022-08-03T19:31:31.044Z,6.30
2022-08-03T19:33:59.880Z,7.00
2022-08-03T19:36:28.710Z,7.30
2022-08-03T19:38:56.395Z,6.90
2022-08-03T19:41:31.176Z,6.30
2022-08-03T19:44:11.491Z,7.20
2022-08-03T19:46:52.122Z,6.50
2022-08-03T19:49:19.884Z,6.30
2022-08-03T19:52:01.769Z,7.50
2022-08-03T19:54:45.639Z,6.90
2022-08-03T19:57:20.499Z,6.30
2022-08-03T19:59:50.116Z,6.90
2022-08-03T20:02:26.189Z,6.50
2022-08-03T20:04:57.606Z,6.70
2022-08-03T20:07:26.809Z,6.30
2022-08-03T20:09:56.046Z,6.10
2022-08-03T20:12:28.123Z,6.60
2022-08-03T20:14:59.924Z,6.60
2022-08-03T20:17:56.265Z,6.70
2022-08-03T20:20:18.548Z,6.20
2022-08-03T20:22:45.469Z,7.00
2022-08-03T20:25:12.952Z,6.10
2022-08-03T20:28:06.990Z,6.30
2022-08-03T20:30:34.444Z,6.10
2022-08-03T20:33:01.185Z,6.30
2022-08-03T20:35:28.825Z,5.90
2022-08-03T20:37:56.075Z,6.20
2022-08-03T20:40:27.529Z,6.00
2022-08-03T20:42:55.792Z,5.70
2022-08-03T20:45:59.800Z,6.10
2022-08-03T20:48:09.832Z,6.60
2022-08-03T20:50:38.226Z,5.50
2022-08-03T20:53:06.342Z,5.80
2022-08-03T20:55:47.752Z,6.10
2022-08-03T21:00:51.561Z,6.00
2022-08-03T21:03:18.914Z,5.50
2022-08-03T21:05:51.074Z,5.50
2022-08-03T21:08:19.089Z,5.70
2022-08-03T21:10:45.868Z,5.80
2022-08-03T21:16:11.247Z,5.10
2022-08-03T21:18:38.640Z,5.50
2022-08-03T21:21:05.366Z,5.60
2022-08-03T21:23:40.095Z,5.70
2022-08-03T21:26:15.178Z,5.60
2022-08-03T21:28:41.904Z,6.30
2022-08-03T21:31:09.280Z,5.30
2022-08-03T21:33:36.008Z,6.40
2022-08-03T21:36:03.608Z,6.30
2022-08-03T21:38:30.596Z,5.60
2022-08-03T21:40:57.494Z,6.20
2022-08-03T21:43:24.324Z,6.50
2022-08-03T21:46:09.464Z,6.30
2022-08-03T21:48:37.584Z,6.90
2022-08-03T21:51:05.643Z,5.90
2022-08-03T21:54:03.702Z,6.00
2022-08-03T21:56:21.117Z,7.00
2022-08-03T21:58:56.156Z,6.10
2022-08-03T22:01:25.272Z,6.40
2022-08-03T22:03:54.311Z,6.70
2022-08-03T22:06:22.220Z,7.00
2022-08-03T22:08:53.938Z,7.20
2022-08-03T22:11:20.846Z,7.90
2022-08-03T22:13:49.679Z,6.90
2022-08-03T22:16:16.635Z,7.60
2022-08-03T22:18:45.270Z,7.70
2022-08-03T22:21:16.003Z,8.20
2022-08-03T22:23:55.423Z,7.00
2022-08-03T22:26:34.621Z,8.20
2022-08-03T22:29:01.907Z,7.60
2022-08-03T22:31:56.969Z,7.70
2022-08-03T22:34:15.603Z,7.50
2022-08-03T22:36:42.492Z,7.20
2022-08-03T22:39:09.328Z,6.60
2022-08-03T22:41:36.217Z,7.50
2022-08-03T22:44:04.666Z,7.10
2022-08-03T22:46:31.663Z,7.10
2022-08-03T22:48:58.555Z,7.10
2022-08-03T22:51:25.474Z,7.80
2022-08-03T22:53:52.435Z,7.40
2022-08-03T22:56:19.293Z,7.20
2022-08-03T22:58:46.047Z,8.00
2022-08-03T23:01:12.851Z,7.80
2022-08-03T23:03:58.974Z,7.80
2022-08-03T23:06:28.143Z,7.70
2022-08-03T23:08:54.912Z,7.80
2022-08-03T23:11:21.659Z,7.40
2022-08-03T23:13:50.012Z,7.50
2022-08-03T23:16:16.743Z,7.80
2022-08-03T23:18:56.170Z,8.00
2022-08-03T23:21:53.198Z,7.10
2022-08-03T23:24:17.666Z,7.70
2022-08-03T23:26:56.328Z,7.60
2022-08-03T23:29:23.034Z,8.10
2022-08-03T23:31:49.772Z,7.80
2022-08-03T23:34:35.177Z,7.20
2022-08-03T23:37:01.983Z,7.50
2022-08-03T23:39:29.413Z,7.50
2022-08-03T23:42:02.987Z,6.90
2022-08-03T23:44:32.801Z,7.40
2022-08-03T23:46:59.600Z,7.30
2022-08-03T23:49:26.345Z,8.60
2022-08-03T23:52:10.736Z,7.60
2022-08-03T23:54:44.561Z,6.90
2022-08-03T23:57:24.930Z,6.80
